sensor_id;sensor_type;location;lat;lon;timestamp;pressure;altitude;pressure_sealevel;temperature;humidity
18988;BME280;5494;51.796;10.952;2023-06-10T00:00:06;99100.72;;;16.76;88.33
18988;BME280;5494;51.796;10.952;2023-06-10T00:02:41;99095.81;;;16.71;89.46
18988;BME280;5494;51.796;10.952;2023-06-10T00:05:11;99103.53;;;16.62;90.07
18988;BME280;5494;51.796;10.952;2023-06-10T00:07:41;99102.88;;;16.58;90.48
18988;BME280;5494;51.796;10.952;2023-06-10T00:10:09;99094.50;;;16.53;91.64
18988;BME280;5494;51.796;10.952;2023-06-10T00:12:38;99093.16;;;16.47;92.22
18988;BME280;5494;51.796;10.952;2023-06-10T00:15:08;99086.13;;;16.48;92.79
18988;BME280;5494;51.796;10.952;2023-06-10T00:17:37;99095.78;;;16.47;92.19
18988;BME280;5494;51.796;10.952;2023-06-10T00:20:08;99094.34;;;16.43;92.17
18988;BME280;5494;51.796;10.952;2023-06-10T00:22:40;99091.22;;;16.38;92.80
18988;BME280;5494;51.796;10.952;2023-06-10T00:25:12;99092.28;;;16.36;93.28
18988;BME280;5494;51.796;10.952;2023-06-10T00:27:40;99086.84;;;16.26;94.36
18988;BME280;5494;51.796;10.952;2023-06-10T00:30:10;99091.47;;;16.23;94.97
18988;BME280;5494;51.796;10.952;2023-06-10T00:32:38;99091.47;;;16.23;95.57
18988;BME280;5494;51.796;10.952;2023-06-10T00:35:07;99090.84;;;16.19;95.73
18988;BME280;5494;51.796;10.952;2023-06-10T00:37:36;99086.56;;;16.18;96.18
18988;BME280;5494;51.796;10.952;2023-06-10T00:40:07;99082.47;;;16.14;96.21
18988;BME280;5494;51.796;10.952;2023-06-10T00:42:36;99082.94;;;16.08;97.48
18988;BME280;5494;51.796;10.952;2023-06-10T00:45:06;99088.50;;;16.03;98.31
18988;BME280;5494;51.796;10.952;2023-06-10T00:47:36;99087.88;;;16.00;98.35
18988;BME280;5494;51.796;10.952;2023-06-10T00:50:06;99084.66;;;15.96;98.46
18988;BME280;5494;51.796;10.952;2023-06-10T00:52:35;99089.69;;;15.87;99.84
18988;BME280;5494;51.796;10.952;2023-06-10T00:55:06;99085.19;;;15.89;99.93
18988;BME280;5494;51.796;10.952;2023-06-10T00:57:36;99079.94;;;15.89;100.00
18988;BME280;5494;51.796;10.952;2023-06-10T01:00:06;99086.34;;;15.85;100.00
18988;BME280;5494;51.796;10.952;2023-06-10T01:02:35;99085.00;;;15.79;100.00
18988;BME280;5494;51.796;10.952;2023-06-10T01:05:04;99082.38;;;15.79;100.00
18988;BME280;5494;51.796;10.952;2023-06-10T01:07:38;99080.06;;;15.74;100.00
18988;BME280;5494;51.796;10.952;2023-06-10T01:10:17;99079.63;;;15.81;100.00
18988;BME280;5494;51.796;10.952;2023-06-10T01:12:59;99086.88;;;15.77;100.00
18988;BME280;5494;51.796;10.952;2023-06-10T01:15:30;99085.00;;;15.79;100.00
18988;BME280;5494;51.796;10.952;2023-06-10T01:18:01;99087.38;;;15.95;100.00
18988;BME280;5494;51.796;10.952;2023-06-10T01:20:31;99087.16;;;15.85;100.00
18988;BME280;5494;51.796;10.952;2023-06-10T01:23:02;99096.84;;;15.72;100.00
18988;BME280;5494;51.796;10.952;2023-06-10T01:25:31;99095.81;;;15.62;100.00
18988;BME280;5494;51.796;10.952;2023-06-10T01:28:07;99097.47;;;15.50;100.00
18988;BME280;5494;51.796;10.952;2023-06-10T01:30:48;99090.97;;;15.43;100.00
18988;BME280;5494;51.796;10.952;2023-06-10T01:33:27;99092.03;;;15.28;100.00
18988;BME280;5494;51.796;10.952;2023-06-10T01:35:58;99095.88;;;15.22;100.00
18988;BME280;5494;51.796;10.952;2023-06-10T01:38:32;99095.25;;;15.19;100.00
18988;BME280;5494;51.796;10.952;2023-06-10T01:41:01;99097.66;;;15.22;100.00
18988;BME280;5494;51.796;10.952;2023-06-10T01:43:33;99103.13;;;15.19;100.00
18988;BME280;5494;51.796;10.952;2023-06-10T01:46:01;99114.53;;;15.18;100.00
18988;BME280;5494;51.796;10.952;2023-06-10T01:48:29;99122.59;;;15.15;100.00
18988;BME280;5494;51.796;10.952;2023-06-10T01:50:57;99112.09;;;15.15;100.00
18988;BME280;5494;51.796;10.952;2023-06-10T01:53:25;99107.63;;;15.17;100.00
18988;BME280;5494;51.796;10.952;2023-06-10T01:55:55;99110.75;;;15.09;100.00
18988;BME280;5494;51.796;10.952;2023-06-10T01:58:23;99121.13;;;15.11;100.00
18988;BME280;5494;51.796;10.952;2023-06-10T02:00:51;99113.59;;;15.19;100.00
18988;BME280;5494;51.796;10.952;2023-06-10T02:03:19;99098.31;;;15.13;100.00
18988;BME280;5494;51.796;10.952;2023-06-10T02:05:48;99100.38;;;15.08;100.00
18988;BME280;5494;51.796;10.952;2023-06-10T02:08:16;99103.53;;;15.00;100.00
18988;BME280;5494;51.796;10.952;2023-06-10T02:10:44;99101.84;;;14.99;100.00
18988;BME280;5494;51.796;10.952;2023-06-10T02:13:13;99109.88;;;14.96;100.00
18988;BME280;5494;51.796;10.952;2023-06-10T02:15:42;99108.13;;;14.96;100.00
18988;BME280;5494;51.796;10.952;2023-06-10T02:18:11;99102.38;;;15.04;100.00
18988;BME280;5494;51.796;10.952;2023-06-10T02:20:40;99103.31;;;15.03;100.00
18988;BME280;5494;51.796;10.952;2023-06-10T02:23:08;99104.75;;;14.94;100.00
18988;BME280;5494;51.796;10.952;2023-06-10T02:25:36;99110.19;;;14.91;100.00
18988;BME280;5494;51.796;10.952;2023-06-10T02:28:06;99121.28;;;14.82;100.00
18988;BME280;5494;51.796;10.952;2023-06-10T02:30:38;99126.06;;;14.76;100.00
18988;BME280;5494;51.796;10.952;2023-06-10T02:33:08;99123.13;;;14.80;100.00
18988;BME280;5494;51.796;10.952;2023-06-10T02:35:38;99132.91;;;14.78;100.00
18988;BME280;5494;51.796;10.952;2023-06-10T02:38:07;99130.16;;;14.80;100.00
18988;BME280;5494;51.796;10.952;2023-06-10T02:40:35;99126.91;;;14.76;100.00
18988;BME280;5494;51.796;10.952;2023-06-10T02:43:03;99116.44;;;14.76;100.00
18988;BME280;5494;51.796;10.952;2023-06-10T02:45:32;99120.84;;;14.76;100.00
18988;BME280;5494;51.796;10.952;2023-06-10T02:48:03;99121.09;;;14.85;100.00
18988;BME280;5494;51.796;10.952;2023-06-10T02:50:32;99115.78;;;15.00;100.00
18988;BME280;5494;51.796;10.952;2023-06-10T02:53:14;99123.22;;;15.06;100.00
18988;BME280;5494;51.796;10.952;2023-06-10T02:55:48;99123.41;;;15.03;100.00
18988;BME280;5494;51.796;10.952;2023-06-10T02:58:17;99123.81;;;14.96;100.00
18988;BME280;5494;51.796;10.952;2023-06-10T03:00:45;99119.63;;;14.94;100.00
18988;BME280;5494;51.796;10.952;2023-06-10T03:03:15;99131.75;;;14.82;100.00
18988;BME280;5494;51.796;10.952;2023-06-10T03:05:56;99129.94;;;14.70;100.00
18988;BME280;5494;51.796;10.952;2023-06-10T03:08:29;99133.34;;;14.58;100.00
18988;BME280;5494;51.796;10.952;2023-06-10T03:10:59;99135.25;;;14.69;100.00
18988;BME280;5494;51.796;10.952;2023-06-10T03:13:28;99144.72;;;14.84;100.00
18988;BME280;5494;51.796;10.952;2023-06-10T03:15:56;99141.03;;;14.74;100.00
18988;BME280;5494;51.796;10.952;2023-06-10T03:18:27;99150.97;;;14.69;100.00
18988;BME280;5494;51.796;10.952;2023-06-10T03:20:56;99143.19;;;14.67;100.00
18988;BME280;5494;51.796;10.952;2023-06-10T03:23:26;99141.16;;;14.72;100.00
18988;BME280;5494;51.796;10.952;2023-06-10T03:25:54;99136.75;;;14.73;100.00
18988;BME280;5494;51.796;10.952;2023-06-10T03:28:23;99138.84;;;14.80;100.00
18988;BME280;5494;51.796;10.952;2023-06-10T03:30:52;99134.69;;;14.90;100.00
18988;BME280;5494;51.796;10.952;2023-06-10T03:33:23;99130.84;;;15.09;100.00
18988;BME280;5494;51.796;10.952;2023-06-10T03:35:53;99132.69;;;15.21;100.00
18988;BME280;5494;51.796;10.952;2023-06-10T03:38:22;99124.91;;;15.32;100.00
18988;BME280;5494;51.796;10.952;2023-06-10T03:40:50;99131.09;;;15.44;100.00
18988;BME280;5494;51.796;10.952;2023-06-10T03:43:19;99133.44;;;15.61;100.00
18988;BME280;5494;51.796;10.952;2023-06-10T03:45:47;99137.31;;;15.81;100.00
18988;BME280;5494;51.796;10.952;2023-06-10T03:48:16;99139.28;;;16.02;100.00
18988;BME280;5494;51.796;10.952;2023-06-10T03:50:50;99140.50;;;16.22;100.00
18988;BME280;5494;51.796;10.952;2023-06-10T03:53:21;99140.28;;;16.62;100.00
18988;BME280;5494;51.796;10.952;2023-06-10T03:55:50;99142.34;;;16.69;100.00
18988;BME280;5494;51.796;10.952;2023-06-10T03:58:21;99136.72;;;16.98;100.00
18988;BME280;5494;51.796;10.952;2023-06-10T04:00:49;99135.66;;;17.35;98.60
18988;BME280;5494;51.796;10.952;2023-06-10T04:03:17;99137.28;;;17.71;92.72
18988;BME280;5494;51.796;10.952;2023-06-10T04:05:50;99142.91;;;18.00;91.41
18988;BME280;5494;51.796;10.952;2023-06-10T04:08:18;99135.56;;;18.37;86.25
18988;BME280;5494;51.796;10.952;2023-06-10T04:10:48;99141.47;;;18.72;84.11
18988;BME280;5494;51.796;10.952;2023-06-10T04:13:16;99132.09;;;19.11;81.31
18988;BME280;5494;51.796;10.952;2023-06-10T04:15:56;99136.19;;;19.46;78.36
18988;BME280;5494;51.796;10.952;2023-06-10T04:18:24;99138.75;;;19.78;75.71
18988;BME280;5494;51.796;10.952;2023-06-10T04:20:55;99130.13;;;20.36;70.92
18988;BME280;5494;51.796;10.952;2023-06-10T04:23:24;99136.28;;;20.66;68.75
18988;BME280;5494;51.796;10.952;2023-06-10T04:25:54;99139.22;;;21.20;65.68
18988;BME280;5494;51.796;10.952;2023-06-10T04:28:23;99141.41;;;21.54;63.79
18988;BME280;5494;51.796;10.952;2023-06-10T04:30:51;99131.69;;;21.82;61.62
18988;BME280;5494;51.796;10.952;2023-06-10T04:33:19;99135.28;;;22.27;58.65
18988;BME280;5494;51.796;10.952;2023-06-10T04:35:47;99138.69;;;22.65;56.97
18988;BME280;5494;51.796;10.952;2023-06-10T04:38:17;99143.22;;;22.72;55.85
18988;BME280;5494;51.796;10.952;2023-06-10T04:40:49;99142.84;;;22.67;56.86
18988;BME280;5494;51.796;10.952;2023-06-10T04:43:19;99144.69;;;22.85;55.54
18988;BME280;5494;51.796;10.952;2023-06-10T04:45:49;99144.56;;;22.86;55.66
18988;BME280;5494;51.796;10.952;2023-06-10T04:48:17;99141.47;;;22.63;56.27
18988;BME280;5494;51.796;10.952;2023-06-10T04:50:46;99149.28;;;22.65;56.56
18988;BME280;5494;51.796;10.952;2023-06-10T04:53:15;99149.56;;;22.44;56.93
18988;BME280;5494;51.796;10.952;2023-06-10T04:55:45;99142.94;;;22.75;56.57
18988;BME280;5494;51.796;10.952;2023-06-10T04:58:13;99140.97;;;23.13;54.91
18988;BME280;5494;51.796;10.952;2023-06-10T05:00:43;99153.47;;;23.03;55.38
18988;BME280;5494;51.796;10.952;2023-06-10T05:03:11;99147.09;;;22.60;55.93
18988;BME280;5494;51.796;10.952;2023-06-10T05:05:40;99147.03;;;23.05;55.97
18988;BME280;5494;51.796;10.952;2023-06-10T05:08:08;99141.69;;;22.52;57.63
18988;BME280;5494;51.796;10.952;2023-06-10T05:10:36;99138.94;;;22.26;58.29
18988;BME280;5494;51.796;10.952;2023-06-10T05:13:04;99128.78;;;23.46;55.24
18988;BME280;5494;51.796;10.952;2023-06-10T05:15:32;99128.53;;;23.83;53.13
18988;BME280;5494;51.796;10.952;2023-06-10T05:18:01;99141.31;;;24.47;50.24
18988;BME280;5494;51.796;10.952;2023-06-10T05:20:30;99137.59;;;24.32;50.04
18988;BME280;5494;51.796;10.952;2023-06-10T05:22:58;99135.22;;;24.87;49.58
18988;BME280;5494;51.796;10.952;2023-06-10T05:25:30;99134.34;;;25.92;46.08
18988;BME280;5494;51.796;10.952;2023-06-10T05:27:58;99148.22;;;26.57;43.90
18988;BME280;5494;51.796;10.952;2023-06-10T05:30:26;99137.81;;;27.39;41.80
18988;BME280;5494;51.796;10.952;2023-06-10T05:32:54;99134.19;;;28.43;39.26
18988;BME280;5494;51.796;10.952;2023-06-10T05:35:24;99133.19;;;28.14;39.42
18988;BME280;5494;51.796;10.952;2023-06-10T05:37:52;99131.91;;;28.40;39.31
18988;BME280;5494;51.796;10.952;2023-06-10T05:40:20;99135.44;;;28.26;38.75
18988;BME280;5494;51.796;10.952;2023-06-10T05:42:49;99126.66;;;28.02;39.66
18988;BME280;5494;51.796;10.952;2023-06-10T05:45:17;99126.75;;;29.17;37.97
18988;BME280;5494;51.796;10.952;2023-06-10T05:47:45;99122.84;;;29.19;37.63
18988;BME280;5494;51.796;10.952;2023-06-10T05:50:13;99120.34;;;29.39;37.22
18988;BME280;5494;51.796;10.952;2023-06-10T05:52:42;99125.16;;;29.01;37.22
18988;BME280;5494;51.796;10.952;2023-06-10T05:55:10;99136.13;;;28.49;38.65
18988;BME280;5494;51.796;10.952;2023-06-10T05:57:41;99132.72;;;27.67;40.11
18988;BME280;5494;51.796;10.952;2023-06-10T06:00:10;99126.72;;;28.38;39.09
18988;BME280;5494;51.796;10.952;2023-06-10T06:02:38;99121.72;;;28.71;37.80
18988;BME280;5494;51.796;10.952;2023-06-10T06:05:07;99114.47;;;29.50;37.15
18988;BME280;5494;51.796;10.952;2023-06-10T06:07:36;99121.91;;;29.89;35.84
18988;BME280;5494;51.796;10.952;2023-06-10T06:10:07;99128.53;;;28.88;37.39
18988;BME280;5494;51.796;10.952;2023-06-10T06:12:35;99136.16;;;27.75;39.85
18988;BME280;5494;51.796;10.952;2023-06-10T06:15:04;99144.34;;;28.33;38.74
18988;BME280;5494;51.796;10.952;2023-06-10T06:17:32;99144.81;;;28.07;38.76
18988;BME280;5494;51.796;10.952;2023-06-10T06:20:00;99150.63;;;28.10;39.35
18988;BME280;5494;51.796;10.952;2023-06-10T06:22:29;99148.59;;;27.08;41.35
18988;BME280;5494;51.796;10.952;2023-06-10T06:24:57;99141.19;;;27.56;41.42
18988;BME280;5494;51.796;10.952;2023-06-10T06:27:27;99149.91;;;28.67;39.36
18988;BME280;5494;51.796;10.952;2023-06-10T06:29:56;99142.16;;;27.77;40.48
18988;BME280;5494;51.796;10.952;2023-06-10T06:32:25;99142.91;;;27.49;41.63
18988;BME280;5494;51.796;10.952;2023-06-10T06:34:54;99130.81;;;28.91;38.89
18988;BME280;5494;51.796;10.952;2023-06-10T06:37:23;99141.22;;;28.14;39.84
18988;BME280;5494;51.796;10.952;2023-06-10T06:40:01;99147.22;;;27.12;42.45
18988;BME280;5494;51.796;10.952;2023-06-10T06:42:32;99157.50;;;25.92;45.90
18988;BME280;5494;51.796;10.952;2023-06-10T06:45:09;99147.81;;;25.99;45.93
18988;BME280;5494;51.796;10.952;2023-06-10T06:47:37;99156.47;;;26.48;45.12
18988;BME280;5494;51.796;10.952;2023-06-10T06:50:06;99166.78;;;26.04;45.57
18988;BME280;5494;51.796;10.952;2023-06-10T06:52:34;99152.22;;;25.10;48.87
18988;BME280;5494;51.796;10.952;2023-06-10T06:55:03;99160.19;;;25.10;48.35
18988;BME280;5494;51.796;10.952;2023-06-10T06:57:33;99164.53;;;24.45;50.92
18988;BME280;5494;51.796;10.952;2023-06-10T07:00:01;99159.41;;;24.52;51.63
18988;BME280;5494;51.796;10.952;2023-06-10T07:02:29;99159.09;;;23.87;53.87
18988;BME280;5494;51.796;10.952;2023-06-10T07:04:58;99162.09;;;23.84;54.40
18988;BME280;5494;51.796;10.952;2023-06-10T07:07:27;99170.88;;;23.84;54.97
18988;BME280;5494;51.796;10.952;2023-06-10T07:09:55;99165.53;;;25.19;50.38
18988;BME280;5494;51.796;10.952;2023-06-10T07:12:23;99169.19;;;25.74;48.29
18988;BME280;5494;51.796;10.952;2023-06-10T07:14:53;99159.06;;;26.17;47.60
18988;BME280;5494;51.796;10.952;2023-06-10T07:17:21;99166.94;;;26.49;45.12
18988;BME280;5494;51.796;10.952;2023-06-10T07:19:49;99164.50;;;25.84;47.52
18988;BME280;5494;51.796;10.952;2023-06-10T07:22:18;99166.56;;;25.58;48.05
18988;BME280;5494;51.796;10.952;2023-06-10T07:24:46;99164.53;;;26.23;46.80
18988;BME280;5494;51.796;10.952;2023-06-10T07:27:14;99165.97;;;26.42;46.00
18988;BME280;5494;51.796;10.952;2023-06-10T07:29:42;99163.22;;;26.58;45.43
18988;BME280;5494;51.796;10.952;2023-06-10T07:32:12;99167.44;;;27.29;44.59
18988;BME280;5494;51.796;10.952;2023-06-10T07:34:43;99164.22;;;27.57;43.83
18988;BME280;5494;51.796;10.952;2023-06-10T07:37:11;99172.19;;;26.65;45.39
18988;BME280;5494;51.796;10.952;2023-06-10T07:39:39;99164.22;;;25.23;50.10
18988;BME280;5494;51.796;10.952;2023-06-10T07:42:07;99164.81;;;24.26;52.13
18988;BME280;5494;51.796;10.952;2023-06-10T07:44:35;99161.81;;;24.79;53.26
18988;BME280;5494;51.796;10.952;2023-06-10T07:47:04;99166.03;;;25.06;52.96
18988;BME280;5494;51.796;10.952;2023-06-10T07:49:33;99168.53;;;25.48;50.31
18988;BME280;5494;51.796;10.952;2023-06-10T07:52:02;99177.06;;;24.69;52.88
18988;BME280;5494;51.796;10.952;2023-06-10T07:54:30;99172.19;;;25.15;52.11
18988;BME280;5494;51.796;10.952;2023-06-10T07:56:58;99174.84;;;25.71;50.16
18988;BME280;5494;51.796;10.952;2023-06-10T07:59:26;99169.69;;;25.05;51.63
18988;BME280;5494;51.796;10.952;2023-06-10T08:01:54;99181.50;;;25.27;51.57
18988;BME280;5494;51.796;10.952;2023-06-10T08:04:22;99179.16;;;25.56;51.20
18988;BME280;5494;51.796;10.952;2023-06-10T08:06:53;99177.53;;;25.63;50.66
18988;BME280;5494;51.796;10.952;2023-06-10T08:09:21;99178.50;;;25.54;49.93
18988;BME280;5494;51.796;10.952;2023-06-10T08:11:50;99177.03;;;25.60;50.33
18988;BME280;5494;51.796;10.952;2023-06-10T08:14:21;99177.19;;;26.30;49.39
18988;BME280;5494;51.796;10.952;2023-06-10T08:16:49;99181.13;;;26.42;48.37
18988;BME280;5494;51.796;10.952;2023-06-10T08:19:17;99176.34;;;26.37;47.79
18988;BME280;5494;51.796;10.952;2023-06-10T08:21:46;99187.72;;;26.62;47.84
18988;BME280;5494;51.796;10.952;2023-06-10T08:24:15;99178.97;;;27.30;46.45
18988;BME280;5494;51.796;10.952;2023-06-10T08:26:45;99178.78;;;27.31;46.46
18988;BME280;5494;51.796;10.952;2023-06-10T08:29:13;99192.63;;;26.42;47.03
18988;BME280;5494;51.796;10.952;2023-06-10T08:31:42;99187.25;;;26.11;49.31
18988;BME280;5494;51.796;10.952;2023-06-10T08:34:11;99184.22;;;26.61;48.26
18988;BME280;5494;51.796;10.952;2023-06-10T08:36:38;99189.44;;;26.00;49.39
18988;BME280;5494;51.796;10.952;2023-06-10T08:39:06;99191.88;;;26.64;48.57
18988;BME280;5494;51.796;10.952;2023-06-10T08:41:43;99195.56;;;26.55;48.41
18988;BME280;5494;51.796;10.952;2023-06-10T08:44:22;99192.91;;;26.94;48.07
18988;BME280;5494;51.796;10.952;2023-06-10T08:46:58;99180.91;;;27.36;45.83
18988;BME280;5494;51.796;10.952;2023-06-10T08:49:33;99187.47;;;26.80;47.78
18988;BME280;5494;51.796;10.952;2023-06-10T08:52:03;99174.38;;;27.61;46.06
18988;BME280;5494;51.796;10.952;2023-06-10T08:54:33;99176.72;;;28.38;44.05
18988;BME280;5494;51.796;10.952;2023-06-10T08:57:06;99177.34;;;29.12;42.55
18988;BME280;5494;51.796;10.952;2023-06-10T08:59:34;99170.16;;;28.91;41.82
18988;BME280;5494;51.796;10.952;2023-06-10T09:02:04;99173.75;;;27.89;44.22
18988;BME280;5494;51.796;10.952;2023-06-10T09:04:33;99187.59;;;26.86;47.71
18988;BME280;5494;51.796;10.952;2023-06-10T09:07:03;99178.13;;;27.29;46.99
18988;BME280;5494;51.796;10.952;2023-06-10T09:09:34;99166.22;;;28.21;44.24
18988;BME280;5494;51.796;10.952;2023-06-10T09:12:04;99173.97;;;28.82;42.55
18988;BME280;5494;51.796;10.952;2023-06-10T09:14:33;99171.50;;;29.02;42.05
18988;BME280;5494;51.796;10.952;2023-06-10T09:17:02;99164.53;;;29.77;40.93
18988;BME280;5494;51.796;10.952;2023-06-10T09:19:30;99161.53;;;29.87;40.42
18988;BME280;5494;51.796;10.952;2023-06-10T09:21:58;99161.63;;;28.66;43.56
18988;BME280;5494;51.796;10.952;2023-06-10T09:24:27;99163.06;;;28.47;43.38
18988;BME280;5494;51.796;10.952;2023-06-10T09:27:03;99173.00;;;27.42;46.26
18988;BME280;5494;51.796;10.952;2023-06-10T09:29:46;99175.47;;;27.29;47.18
18988;BME280;5494;51.796;10.952;2023-06-10T09:32:17;99164.59;;;27.54;47.53
18988;BME280;5494;51.796;10.952;2023-06-10T09:34:46;99170.88;;;26.92;47.42
18988;BME280;5494;51.796;10.952;2023-06-10T09:37:20;99172.22;;;26.96;47.64
18988;BME280;5494;51.796;10.952;2023-06-10T09:40:02;99176.00;;;27.02;48.26
18988;BME280;5494;51.796;10.952;2023-06-10T09:42:36;99167.94;;;27.48;46.84
18988;BME280;5494;51.796;10.952;2023-06-10T09:45:07;99166.75;;;28.02;45.49
18988;BME280;5494;51.796;10.952;2023-06-10T09:47:35;99163.16;;;27.95;45.36
18988;BME280;5494;51.796;10.952;2023-06-10T09:50:04;99163.59;;;27.09;47.96
18988;BME280;5494;51.796;10.952;2023-06-10T09:52:37;99164.41;;;26.17;51.38
18988;BME280;5494;51.796;10.952;2023-06-10T09:55:09;99172.72;;;26.61;49.39
18988;BME280;5494;51.796;10.952;2023-06-10T09:57:39;99166.22;;;27.17;49.08
18988;BME280;5494;51.796;10.952;2023-06-10T10:00:12;99161.88;;;27.16;49.72
18988;BME280;5494;51.796;10.952;2023-06-10T10:02:45;99170.53;;;26.64;51.08
18988;BME280;5494;51.796;10.952;2023-06-10T10:05:16;99170.50;;;27.41;48.46
18988;BME280;5494;51.796;10.952;2023-06-10T10:07:46;99157.28;;;28.14;46.50
18988;BME280;5494;51.796;10.952;2023-06-10T10:10:17;99153.28;;;27.96;47.58
18988;BME280;5494;51.796;10.952;2023-06-10T10:12:47;99158.09;;;27.71;46.46
18988;BME280;5494;51.796;10.952;2023-06-10T10:15:18;99172.38;;;26.95;50.06
18988;BME280;5494;51.796;10.952;2023-06-10T10:17:53;99153.09;;;27.68;46.73
18988;BME280;5494;51.796;10.952;2023-06-10T10:20:29;99162.97;;;27.97;46.35
18988;BME280;5494;51.796;10.952;2023-06-10T10:23:02;99159.66;;;27.95;46.24
18988;BME280;5494;51.796;10.952;2023-06-10T10:25:37;99155.44;;;27.86;46.84
18988;BME280;5494;51.796;10.952;2023-06-10T10:28:10;99153.16;;;27.22;48.25
18988;BME280;5494;51.796;10.952;2023-06-10T10:30:42;99156.44;;;27.47;46.79
18988;BME280;5494;51.796;10.952;2023-06-10T10:33:16;99150.38;;;26.93;47.83
18988;BME280;5494;51.796;10.952;2023-06-10T10:35:46;99160.28;;;26.06;47.82
18988;BME280;5494;51.796;10.952;2023-06-10T10:38:15;99155.72;;;25.60;49.04
18988;BME280;5494;51.796;10.952;2023-06-10T10:40:44;99157.88;;;25.40;54.50
18988;BME280;5494;51.796;10.952;2023-06-10T10:43:14;99155.53;;;25.69;53.75
18988;BME280;5494;51.796;10.952;2023-06-10T10:45:57;99143.75;;;26.11;50.93
18988;BME280;5494;51.796;10.952;2023-06-10T10:48:27;99149.91;;;26.27;51.10
18988;BME280;5494;51.796;10.952;2023-06-10T10:51:01;99145.41;;;26.20;50.49
18988;BME280;5494;51.796;10.952;2023-06-10T10:53:29;99149.72;;;25.49;51.57
18988;BME280;5494;51.796;10.952;2023-06-10T10:56:05;99148.25;;;25.23;52.75
18988;BME280;5494;51.796;10.952;2023-06-10T10:58:34;99144.75;;;25.14;54.75
18988;BME280;5494;51.796;10.952;2023-06-10T11:01:12;99147.53;;;24.88;55.38
18988;BME280;5494;51.796;10.952;2023-06-10T11:03:45;99152.44;;;24.51;58.35
18988;BME280;5494;51.796;10.952;2023-06-10T11:06:17;99138.56;;;24.97;56.24
18988;BME280;5494;51.796;10.952;2023-06-10T11:08:46;99138.56;;;25.54;53.89
18988;BME280;5494;51.796;10.952;2023-06-10T11:11:20;99136.88;;;25.77;52.36
18988;BME280;5494;51.796;10.952;2023-06-10T11:14:06;99130.56;;;25.70;49.42
18988;BME280;5494;51.796;10.952;2023-06-10T11:16:41;99130.25;;;25.57;52.46
18988;BME280;5494;51.796;10.952;2023-06-10T11:19:33;99129.75;;;25.70;52.55
18988;BME280;5494;51.796;10.952;2023-06-10T11:22:05;99132.94;;;25.65;52.50
18988;BME280;5494;51.796;10.952;2023-06-10T11:24:34;99132.44;;;25.29;52.16
18988;BME280;5494;51.796;10.952;2023-06-10T11:27:22;99133.28;;;25.14;53.93
18988;BME280;5494;51.796;10.952;2023-06-10T11:30:17;99130.78;;;25.28;54.43
18988;BME280;5494;51.796;10.952;2023-06-10T11:32:51;99127.28;;;25.20;54.08
18988;BME280;5494;51.796;10.952;2023-06-10T11:35:23;99120.97;;;25.29;51.79
18988;BME280;5494;51.796;10.952;2023-06-10T11:37:51;99125.25;;;25.70;51.31
18988;BME280;5494;51.796;10.952;2023-06-10T11:40:19;99128.09;;;25.36;51.87
18988;BME280;5494;51.796;10.952;2023-06-10T11:42:47;99116.94;;;25.25;51.97
18988;BME280;5494;51.796;10.952;2023-06-10T11:45:16;99124.25;;;25.47;51.02
18988;BME280;5494;51.796;10.952;2023-06-10T11:47:57;99117.94;;;25.56;50.19
18988;BME280;5494;51.796;10.952;2023-06-10T11:50:30;99122.59;;;25.62;49.97
18988;BME280;5494;51.796;10.952;2023-06-10T11:52:59;99112.47;;;25.17;53.77
18988;BME280;5494;51.796;10.952;2023-06-10T11:55:41;99119.09;;;25.54;52.93
18988;BME280;5494;51.796;10.952;2023-06-10T11:58:13;99123.41;;;25.71;52.17
18988;BME280;5494;51.796;10.952;2023-06-10T12:00:47;99117.75;;;25.66;50.21
18988;BME280;5494;51.796;10.952;2023-06-10T12:03:17;99116.94;;;25.65;50.56
18988;BME280;5494;51.796;10.952;2023-06-10T12:05:56;99116.25;;;25.71;50.65
18988;BME280;5494;51.796;10.952;2023-06-10T12:08:26;99108.75;;;25.75;51.51
18988;BME280;5494;51.796;10.952;2023-06-10T12:10:55;99110.38;;;25.84;52.17
18988;BME280;5494;51.796;10.952;2023-06-10T12:13:26;99113.28;;;25.50;51.94
18988;BME280;5494;51.796;10.952;2023-06-10T12:16:06;99109.13;;;25.64;51.79
18988;BME280;5494;51.796;10.952;2023-06-10T12:18:36;99108.88;;;25.81;50.68
18988;BME280;5494;51.796;10.952;2023-06-10T12:21:16;99105.06;;;25.84;48.62
18988;BME280;5494;51.796;10.952;2023-06-10T12:24:06;99103.47;;;25.50;51.29
18988;BME280;5494;51.796;10.952;2023-06-10T12:26:40;99102.41;;;25.76;50.63
18988;BME280;5494;51.796;10.952;2023-06-10T12:29:20;99103.22;;;25.93;48.93
18988;BME280;5494;51.796;10.952;2023-06-10T12:32:00;99091.28;;;25.72;50.97
18988;BME280;5494;51.796;10.952;2023-06-10T12:34:34;99099.59;;;25.77;51.12
18988;BME280;5494;51.796;10.952;2023-06-10T12:37:04;99097.44;;;26.20;51.44
18988;BME280;5494;51.796;10.952;2023-06-10T12:39:33;99098.31;;;26.04;49.37
18988;BME280;5494;51.796;10.952;2023-06-10T12:42:03;99107.19;;;25.97;47.28
18988;BME280;5494;51.796;10.952;2023-06-10T12:44:34;99083.31;;;25.64;48.51
18988;BME280;5494;51.796;10.952;2023-06-10T12:47:08;99090.53;;;25.95;49.37
18988;BME280;5494;51.796;10.952;2023-06-10T12:49:40;99104.13;;;26.08;49.40
18988;BME280;5494;51.796;10.952;2023-06-10T12:52:08;99090.75;;;26.16;46.80
18988;BME280;5494;51.796;10.952;2023-06-10T12:54:36;99086.38;;;25.92;47.40
18988;BME280;5494;51.796;10.952;2023-06-10T12:57:05;99086.84;;;25.96;47.65
18988;BME280;5494;51.796;10.952;2023-06-10T12:59:36;99076.88;;;25.98;46.95
18988;BME280;5494;51.796;10.952;2023-06-10T13:02:04;99077.34;;;26.40;46.70
18988;BME280;5494;51.796;10.952;2023-06-10T13:04:35;99079.56;;;26.28;45.87
18988;BME280;5494;51.796;10.952;2023-06-10T13:07:04;99070.53;;;25.99;45.93
18988;BME280;5494;51.796;10.952;2023-06-10T13:09:33;99079.03;;;25.94;46.68
18988;BME280;5494;51.796;10.952;2023-06-10T13:12:01;99079.22;;;25.93;46.67
18988;BME280;5494;51.796;10.952;2023-06-10T13:14:29;99065.28;;;25.82;46.81